Time;durP1;ratioP1;P1;durP2;ratioP2;P2;SDS_P1;SDS_P2;PMS_P1;PMS_P2;Temp;Humidity;BMP_temperature;BMP_pressure;BME280_temperature;BME280_humidity;BME280_pressure;Samples;Min_cycle;Max_cycle;Signal;HPM_P1;HPM_P2
2022/05/31 00:00:39;;;;;;;8.15;4.72;;;;;;;9.15;75.56;101205.25;5098751;28;20023;-84
2022/05/31 00:03:06;;;;;;;8.38;5.03;;;;;;;9.10;76.02;101205.03;5115951;28;20061;-85
2022/05/31 00:05:34;;;;;;;7.00;5.07;;;;;;;9.05;76.93;101210.19;5116694;28;20452;-85
2022/05/31 00:08:00;;;;;;;7.30;4.60;;;;;;;9.02;76.26;101208.72;5116322;28;20064;-85
2022/05/31 00:10:25;;;;;;;7.22;4.90;;;;;;;8.98;77.29;101206.63;5116111;28;20035;-85
2022/05/31 00:12:51;;;;;;;9.43;4.47;;;;;;;8.95;76.83;101207.84;5099238;28;20034;-85
2022/05/31 00:15:18;;;;;;;11.98;5.13;;;;;;;8.89;77.38;101200.50;5115573;28;20547;-85
2022/05/31 00:17:44;;;;;;;7.13;4.45;;;;;;;8.82;76.32;101200.44;5115495;28;20383;-85
2022/05/31 00:20:11;;;;;;;7.03;4.70;;;;;;;8.81;77.85;101204.16;5115246;28;20031;-85
2022/05/31 00:22:43;;;;;;;7.93;4.75;;;;;;;8.74;78.36;101203.28;5115449;28;20118;-85
2022/05/31 00:25:10;;;;;;;10.10;4.47;;;;;;;8.70;77.76;101204.72;5115740;28;20023;-85
2022/05/31 00:27:39;;;;;;;12.20;5.13;;;;;;;8.64;78.82;101202.78;5097945;28;20039;-85
2022/05/31 00:30:05;;;;;;;8.82;4.57;;;;;;;8.60;78.91;101203.16;5114989;28;20019;-85
2022/05/31 00:32:34;;;;;;;6.30;4.88;;;;;;;8.58;78.32;101207.94;5098985;28;20373;-85
2022/05/31 00:35:08;;;;;;;7.97;4.68;;;;;;;8.57;78.99;101202.72;5114701;28;20551;-85
2022/05/31 00:37:34;;;;;;;9.10;5.20;;;;;;;8.55;79.60;101202.91;5114970;28;20030;-85
2022/05/31 00:40:00;;;;;;;8.80;5.23;;;;;;;8.51;79.79;101201.63;5115061;28;20023;-85
2022/05/31 00:42:25;;;;;;;9.05;4.82;;;;;;;8.52;78.30;101206.00;5097969;28;20084;-85
2022/05/31 00:44:51;;;;;;;8.17;4.83;;;;;;;8.50;77.96;101202.63;5098043;28;20061;-85
2022/05/31 00:47:30;;;;;;;8.23;5.10;;;;;;;8.49;78.51;101209.09;5116013;28;20027;-85
2022/05/31 00:50:01;;;;;;;6.65;4.57;;;;;;;8.45;78.54;101206.97;5115015;28;20028;-85
2022/05/31 00:52:33;;;;;;;6.77;4.50;;;;;;;8.47;78.47;101215.72;5114738;28;20036;-85
2022/05/31 00:55:08;;;;;;;8.25;4.50;;;;;;;8.42;78.20;101208.16;5114510;28;20020;-85
2022/05/31 00:57:36;;;;;;;7.25;4.47;;;;;;;8.42;78.85;101208.97;5115689;28;20054;-85
2022/05/31 01:00:09;;;;;;;7.57;4.60;;;;;;;8.41;79.00;101203.75;5114638;28;20024;-85
2022/05/31 01:02:37;;;;;;;6.55;4.63;;;;;;;8.39;79.23;101197.72;5115622;28;20019;-85
2022/05/31 01:05:04;;;;;;;7.03;4.60;;;;;;;8.39;79.83;101195.03;5114597;28;20042;-86
2022/05/31 01:07:32;;;;;;;8.35;4.88;;;;;;;8.37;80.49;101207.88;5114297;28;20128;-85
2022/05/31 01:09:57;;;;;;;9.75;4.90;;;;;;;8.36;80.75;101204.34;5115404;28;20028;-85
2022/05/31 01:12:25;;;;;;;8.80;4.70;;;;;;;8.32;79.84;101197.66;5114671;28;20463;-85
2022/05/31 01:14:54;;;;;;;9.73;5.10;;;;;;;8.33;80.51;101207.44;5116037;28;20024;-85
2022/05/31 01:17:24;;;;;;;9.27;4.93;;;;;;;8.25;80.86;101194.88;5115633;28;20050;-85
2022/05/31 01:20:00;;;;;;;12.73;5.03;;;;;;;8.23;80.26;101196.94;5114086;28;20031;-85
2022/05/31 01:22:29;;;;;;;11.38;4.70;;;;;;;8.23;81.46;101198.81;5114106;28;20020;-86
2022/05/31 01:25:01;;;;;;;5.95;4.55;;;;;;;8.15;80.39;101186.25;5114276;28;20076;-85
2022/05/31 01:27:41;;;;;;;8.20;4.83;;;;;;;8.14;81.06;101194.56;5114638;28;20409;-86
2022/05/31 01:30:09;;;;;;;7.38;4.47;;;;;;;8.12;81.78;101183.06;5115056;28;20050;-86
2022/05/31 01:32:44;;;;;;;9.15;4.93;;;;;;;8.09;81.47;101187.03;5113820;28;20028;-85
2022/05/31 01:35:19;;;;;;;8.75;4.72;;;;;;;8.04;81.99;101184.84;5114042;28;20035;-84
2022/05/31 01:37:52;;;;;;;9.13;5.25;;;;;;;8.06;82.39;101188.22;5114317;28;20467;-85
2022/05/31 01:40:43;;;;;;;8.60;4.80;;;;;;;8.07;82.10;101194.47;5114201;28;20020;-84
2022/05/31 01:43:08;;;;;;;10.23;4.57;;;;;;;8.02;82.22;101189.63;5114732;28;20055;-85
2022/05/31 01:45:46;;;;;;;8.50;5.10;;;;;;;8.02;82.68;101199.63;5096635;28;20483;-85
2022/05/31 01:48:12;;;;;;;8.35;4.90;;;;;;;7.92;82.44;101183.69;5112930;28;20077;-84
2022/05/31 01:50:41;;;;;;;7.68;4.85;;;;;;;7.93;82.21;101181.81;5113445;28;20181;-84
2022/05/31 01:53:09;;;;;;;9.13;5.13;;;;;;;7.94;82.73;101183.50;5113583;28;20036;-85
2022/05/31 01:55:37;;;;;;;8.80;4.93;;;;;;;7.96;82.55;101189.53;5113705;28;20542;-85
2022/05/31 01:58:06;;;;;;;8.18;5.30;;;;;;;7.93;83.19;101182.66;5113342;28;20042;-84
2022/05/31 02:00:31;;;;;;;8.52;5.35;;;;;;;7.98;84.13;101188.34;5115078;28;20031;-85
2022/05/31 02:03:01;;;;;;;9.97;5.57;;;;;;;7.98;84.86;101190.22;5113414;28;20032;-84
2022/05/31 02:05:28;;;;;;;8.13;5.03;;;;;;;8.03;84.13;101185.06;5113583;28;20030;-85
2022/05/31 02:07:59;;;;;;;8.77;4.70;;;;;;;8.09;83.48;101178.91;5096832;28;20042;-84
2022/05/31 02:10:25;;;;;;;9.27;5.27;;;;;;;8.13;83.00;101173.94;5114338;28;20032;-85
2022/05/31 02:12:51;;;;;;;8.50;5.32;;;;;;;8.22;82.93;101179.06;5113371;28;20399;-85
2022/05/31 02:15:24;;;;;;;7.72;5.00;;;;;;;8.26;82.76;101185.72;5113422;28;20031;-85
2022/05/31 02:17:52;;;;;;;9.23;5.28;;;;;;;8.32;83.37;101173.31;5114598;28;20027;-85
2022/05/31 02:20:20;;;;;;;7.15;4.80;;;;;;;8.42;83.28;101176.53;5113599;28;20395;-85
2022/05/31 02:22:46;;;;;;;10.27;5.30;;;;;;;8.49;82.72;101175.78;5114547;28;20601;-85
2022/05/31 02:25:11;;;;;;;9.40;5.30;;;;;;;8.52;81.48;101172.69;5113449;28;20117;-85
2022/05/31 02:27:37;;;;;;;6.67;5.10;;;;;;;8.57;81.03;101171.09;5112937;28;20023;-85
2022/05/31 02:30:04;;;;;;;9.97;5.13;;;;;;;8.62;80.83;101172.38;5112987;28;20114;-85
2022/05/31 02:32:30;;;;;;;8.88;5.15;;;;;;;8.64;81.47;101163.03;5114107;28;20111;-85
2022/05/31 02:34:58;;;;;;;9.20;5.22;;;;;;;8.57;80.67;101159.44;5112736;28;20201;-85
2022/05/31 02:37:23;;;;;;;7.97;5.40;;;;;;;8.63;82.89;101168.66;5113129;28;20040;-85
2022/05/31 02:39:49;;;;;;;9.68;5.57;;;;;;;8.60;81.81;101165.28;5113997;28;20034;-86
2022/05/31 02:42:16;;;;;;;10.80;5.07;;;;;;;8.53;81.67;101148.19;5112663;28;20056;-85
2022/05/31 02:44:44;;;;;;;10.13;5.70;;;;;;;8.56;81.46;101149.66;5112933;28;20046;-85
2022/05/31 02:47:10;;;;;;;10.27;5.20;;;;;;;8.59;80.57;101158.22;5113932;28;20114;-86
2022/05/31 02:49:38;;;;;;;7.55;5.22;;;;;;;8.69;80.29;101165.16;5113672;28;20452;-85
2022/05/31 02:52:04;;;;;;;7.87;4.87;;;;;;;8.67;79.51;101161.81;5112898;28;20027;-85
2022/05/31 02:54:30;;;;;;;9.27;5.32;;;;;;;8.70;80.56;101158.72;5095962;28;20388;-86
2022/05/31 02:56:58;;;;;;;10.43;5.32;;;;;;;8.72;82.15;101162.88;5113824;28;20027;-85
2022/05/31 02:59:25;;;;;;;10.17;5.13;;;;;;;8.66;81.78;101147.44;5114782;28;20527;-86
2022/05/31 03:01:54;;;;;;;9.90;4.95;;;;;;;8.66;81.97;101152.84;5117464;28;20081;-85
2022/05/31 03:04:20;;;;;;;7.25;5.25;;;;;;;8.74;81.81;101151.88;5116965;28;20023;-85
2022/05/31 03:06:46;;;;;;;8.73;5.47;;;;;;;8.78;80.78;101159.44;5116986;28;20023;-85
2022/05/31 03:09:12;;;;;;;7.60;4.77;;;;;;;8.68;80.57;101140.00;5118272;28;20429;-85
2022/05/31 03:11:43;;;;;;;7.95;5.03;;;;;;;8.82;79.88;101161.72;5116831;28;20475;-85
2022/05/31 03:14:25;;;;;;;7.70;5.00;;;;;;;8.81;79.98;101158.16;5117388;28;20479;-85
2022/05/31 03:16:59;;;;;;;8.40;5.43;;;;;;;8.74;79.35;101141.91;5118073;28;20031;-86
2022/05/31 03:19:31;;;;;;;9.02;4.93;;;;;;;8.85;79.10;101154.03;5117100;28;20031;-85
2022/05/31 03:22:23;;;;;;;7.30;5.05;;;;;;;8.85;79.15;101147.81;5116585;28;20028;-85
2022/05/31 03:25:02;;;;;;;7.85;5.40;;;;;;;8.88;79.07;101142.00;5117787;28;20092;-86
2022/05/31 03:27:28;;;;;;;9.20;5.25;;;;;;;8.89;80.02;101143.69;5116855;28;20062;-86
2022/05/31 03:30:00;;;;;;;7.07;4.60;;;;;;;8.86;78.86;101131.38;5116535;28;20028;-86
2022/05/31 03:32:29;;;;;;;10.18;5.25;;;;;;;8.90;79.19;101132.66;5118111;28;20032;-86
2022/05/31 03:34:54;;;;;;;11.85;5.18;;;;;;;9.02;78.68;101148.34;5116088;28;20035;-85
2022/05/31 03:37:20;;;;;;;6.87;5.23;;;;;;;8.97;79.05;101140.81;5116245;28;20122;-86
2022/05/31 03:39:47;;;;;;;9.30;5.20;;;;;;;9.00;78.73;101126.06;5117288;28;20059;-85
2022/05/31 03:42:13;;;;;;;10.30;4.80;;;;;;;8.97;78.21;101135.41;5116172;28;20050;-85
2022/05/31 03:44:38;;;;;;;7.65;5.13;;;;;;;9.02;78.06;101134.81;5115831;28;20032;-86
2022/05/31 03:47:06;;;;;;;7.43;5.00;;;;;;;9.02;78.07;101135.66;5115791;28;20023;-86
2022/05/31 03:49:33;;;;;;;9.73;4.75;;;;;;;9.02;78.13;101135.66;5116096;28;20027;-85
2022/05/31 03:51:59;;;;;;;8.27;4.75;;;;;;;9.07;77.67;101141.28;5116397;28;20072;-86
2022/05/31 03:54:30;;;;;;;7.47;4.70;;;;;;;9.01;77.89;101130.44;5116046;28;20420;-86
2022/05/31 03:56:59;;;;;;;8.52;4.82;;;;;;;9.06;77.58;101125.25;5116081;28;20035;-86
2022/05/31 03:59:24;;;;;;;7.35;5.05;;;;;;;9.05;77.22;101129.84;5115938;28;20031;-85
2022/05/31 04:01:50;;;;;;;7.13;4.80;;;;;;;9.08;77.42;101134.00;5081873;28;20035;-85
2022/05/31 04:04:15;;;;;;;8.20;4.63;;;;;;;9.11;76.92;101136.34;5115806;28;20024;-87
2022/05/31 04:06:41;;;;;;;8.75;5.07;;;;;;;9.11;76.53;101130.94;5098775;28;20493;-86
2022/05/31 04:09:06;;;;;;;8.97;5.03;;;;;;;9.08;76.60;101129.44;5116470;28;20031;-85
2022/05/31 04:11:35;;;;;;;9.53;5.13;;;;;;;9.17;76.54;101151.78;5115534;28;20459;-86
2022/05/31 04:14:00;;;;;;;7.05;5.13;;;;;;;9.26;77.02;101152.47;5116636;28;20035;-85
2022/05/31 04:16:28;;;;;;;10.90;5.50;;;;;;;9.23;76.49;101134.72;5115154;28;20096;-86
2022/05/31 04:18:54;;;;;;;11.15;5.53;;;;;;;9.27;76.27;101138.72;5116569;28;20059;-86
2022/05/31 04:21:20;;;;;;;15.50;5.50;;;;;;;9.37;76.05;101140.22;5115420;28;20424;-86
2022/05/31 04:23:58;;;;;;;11.73;5.75;;;;;;;9.36;76.75;101131.28;5098503;28;20478;-86
2022/05/31 04:26:37;;;;;;;12.27;5.40;;;;;;;9.49;76.66;101146.72;5115706;28;20031;-86
2022/05/31 04:29:07;;;;;;;8.38;5.40;;;;;;;9.43;76.61;101129.44;5116667;28;20032;-86
2022/05/31 04:31:35;;;;;;;9.95;5.65;;;;;;;9.44;76.05;101125.66;5115444;28;20035;-86
2022/05/31 04:34:04;;;;;;;10.05;5.30;;;;;;;9.60;75.99;101146.16;5115953;28;20039;-85
2022/05/31 04:36:30;;;;;;;6.97;5.50;;;;;;;9.54;75.28;101136.16;5116474;28;20035;-85
2022/05/31 04:38:55;;;;;;;7.20;5.53;;;;;;;9.61;75.48;101139.72;5097909;28;20518;-84
2022/05/31 04:41:26;;;;;;;8.70;5.53;;;;;;;9.60;75.20;101135.34;5097754;28;20023;-85
2022/05/31 04:43:53;;;;;;;9.80;5.60;;;;;;;9.66;75.41;101145.34;5114640;28;20027;-85
2022/05/31 04:46:34;;;;;;;12.25;5.57;;;;;;;9.62;75.10;101129.72;5116430;28;20023;-84
2022/05/31 04:49:02;;;;;;;8.52;5.43;;;;;;;9.65;74.97;101138.28;5114658;28;20065;-84
2022/05/31 04:51:29;;;;;;;6.83;5.03;;;;;;;9.64;75.02;101127.63;5098332;28;20028;-84
2022/05/31 04:53:55;;;;;;;12.20;6.03;;;;;;;9.77;75.36;101133.13;5114607;28;20028;-85
2022/05/31 04:56:25;;;;;;;8.38;5.72;;;;;;;9.89;74.92;101133.38;5115077;28;20210;-85
2022/05/31 04:58:52;;;;;;;10.98;6.10;;;;;;;9.92;74.73;101113.13;5114755;28;20063;-85
2022/05/31 05:01:22;;;;;;;9.90;5.63;;;;;;;10.08;75.07;101134.44;5114512;28;20024;-85
2022/05/31 05:03:47;;;;;;;8.47;5.53;;;;;;;10.18;74.86;101129.44;5114656;28;20035;-85
2022/05/31 05:06:17;;;;;;;7.00;5.43;;;;;;;10.18;74.26;101121.31;5114732;28;20039;-85
2022/05/31 05:08:43;;;;;;;9.60;6.20;;;;;;;10.24;74.34;101116.94;5115623;28;20031;-85
2022/05/31 05:11:16;;;;;;;8.98;5.80;;;;;;;10.41;73.90;101139.13;5114591;28;20451;-84
2022/05/31 05:13:42;;;;;;;10.57;5.97;;;;;;;10.49;73.99;101128.06;5114566;28;20119;-84
2022/05/31 05:16:12;;;;;;;12.15;6.10;;;;;;;10.44;73.75;101108.88;5113862;28;20051;-85
2022/05/31 05:18:38;;;;;;;11.38;6.00;;;;;;;10.52;73.88;101114.06;5114119;28;20388;-85
2022/05/31 05:21:06;;;;;;;10.95;5.85;;;;;;;10.60;73.52;101114.91;5113383;28;20040;-84
2022/05/31 05:23:32;;;;;;;12.07;6.18;;;;;;;10.71;73.27;101119.72;5115143;28;20066;-86
2022/05/31 05:26:00;;;;;;;11.87;6.03;;;;;;;10.79;72.60;101110.53;5114449;28;20427;-84
2022/05/31 05:31:54;;;;;;;10.65;6.38;;;;;;;11.03;72.30;101125.34;5115989;28;20072;-87
2022/05/31 05:34:20;;;;;;;8.68;6.28;;;;;;;11.05;71.99;101124.06;5015809;28;20120;-86
2022/05/31 05:36:45;;;;;;;11.70;6.20;;;;;;;11.21;72.25;101125.47;5032377;28;20167;-83
2022/05/31 05:39:11;;;;;;;12.93;6.30;;;;;;;11.30;72.34;101130.69;5108679;28;20451;-83
2022/05/31 05:41:39;;;;;;;10.70;6.18;;;;;;;11.31;71.34;101121.47;5113533;28;20559;-82
2022/05/31 05:44:05;;;;;;;9.90;6.50;;;;;;;11.33;71.48;101122.94;5114044;28;20089;-82
2022/05/31 05:46:31;;;;;;;11.80;6.80;;;;;;;11.30;71.34;101117.94;5113713;28;20146;-83
2022/05/31 05:48:56;;;;;;;10.65;7.00;;;;;;;11.35;71.43;101128.16;5096897;28;20518;-82
2022/05/31 05:51:25;;;;;;;9.73;6.20;;;;;;;11.22;71.43;101119.00;5114249;28;20081;-82
2022/05/31 05:53:52;;;;;;;12.02;6.82;;;;;;;11.13;71.53;101116.72;5113806;28;20023;-82
2022/05/31 05:56:17;;;;;;;10.57;6.60;;;;;;;11.04;71.79;101113.41;5114766;28;20483;-82
2022/05/31 05:58:43;;;;;;;10.63;6.50;;;;;;;10.99;72.49;101119.47;5113131;28;20035;-82
2022/05/31 06:01:32;;;;;;;11.40;6.90;;;;;;;10.97;72.70;101127.00;5114592;28;20027;-82
2022/05/31 06:04:06;;;;;;;13.18;7.32;;;;;;;10.88;73.52;101114.72;5113529;28;20023;-82
2022/05/31 06:06:34;;;;;;;13.40;7.32;;;;;;;10.84;74.02;101124.31;5114511;28;20061;-82
2022/05/31 06:09:03;;;;;;;13.73;7.40;;;;;;;10.81;74.73;101125.56;5113103;28;20023;-82
2022/05/31 06:11:35;;;;;;;18.58;7.85;;;;;;;10.84;74.68;101125.13;5113072;28;20055;-82
2022/05/31 06:14:07;;;;;;;11.57;6.97;;;;;;;10.79;74.94;101114.09;5113198;28;20035;-82
2022/05/31 06:16:36;;;;;;;14.27;8.60;;;;;;;10.88;74.78;101123.69;5113298;28;20058;-82
2022/05/31 06:19:08;;;;;;;13.43;8.63;;;;;;;10.88;74.65;101112.81;5113964;28;20028;-82
2022/05/31 06:21:33;;;;;;;11.38;7.18;;;;;;;11.02;75.02;101124.47;5114412;28;20024;-82
2022/05/31 06:24:00;;;;;;;16.10;8.63;;;;;;;11.08;74.45;101121.97;5112671;28;20042;-82
2022/05/31 06:26:28;;;;;;;12.68;8.63;;;;;;;11.17;74.74;101120.69;5112445;28;20378;-82
2022/05/31 06:28:53;;;;;;;11.73;8.35;;;;;;;11.24;74.07;101113.38;5112785;28;20027;-82
2022/05/31 06:31:18;;;;;;;14.93;8.47;;;;;;;11.33;73.70;101122.13;5112763;28;20168;-82
2022/05/31 06:33:44;;;;;;;15.20;8.60;;;;;;;11.40;73.25;101123.75;5095453;28;20487;-82
2022/05/31 06:36:10;;;;;;;14.40;8.60;;;;;;;11.42;72.89;101120.81;5112870;28;20047;-83
2022/05/31 06:38:36;;;;;;;13.57;8.25;;;;;;;11.43;73.26;101121.66;5112818;28;20027;-83
2022/05/31 06:41:02;;;;;;;21.40;8.67;;;;;;;11.47;72.91;101128.34;5112847;28;20023;-82
2022/05/31 06:43:28;;;;;;;12.05;8.13;;;;;;;11.56;72.52;101133.31;5078849;28;20108;-82
2022/05/31 06:45:54;;;;;;;15.53;8.93;;;;;;;11.61;73.08;101129.97;5095795;28;20036;-86
2022/05/31 06:48:19;;;;;;;14.32;8.35;;;;;;;11.64;71.59;101125.97;5112914;28;20472;-83
2022/05/31 06:50:45;;;;;;;13.10;8.40;;;;;;;11.65;71.40;101124.91;5095748;28;20080;-83
2022/05/31 06:58:45;;;;;;;16.80;8.85;;;;;;;11.85;69.54;101131.09;5072030;28;20043;-82
2022/05/31 07:01:10;;;;;;;15.07;7.97;;;;;;;11.89;69.37;101117.91;5095210;28;20032;-82
2022/05/31 07:03:36;;;;;;;12.13;8.15;;;;;;;12.11;69.37;101127.44;5113667;28;20486;-82
2022/05/31 07:06:01;;;;;;;14.93;8.40;;;;;;;12.25;68.49;101117.31;5095920;28;20143;-83
2022/05/31 07:08:27;;;;;;;15.00;8.38;;;;;;;12.50;66.60;101115.66;5112273;28;20067;-83
2022/05/31 07:10:52;;;;;;;14.40;7.63;;;;;;;12.79;66.28;101122.31;5114065;28;20035;-83
2022/05/31 07:13:20;;;;;;;14.90;8.00;;;;;;;13.06;65.23;101122.06;5095386;28;20040;-83
2022/05/31 07:15:51;;;;;;;12.32;7.40;;;;;;;13.28;63.89;101117.81;5095833;28;20042;-83
2022/05/31 07:18:19;;;;;;;11.75;6.75;;;;;;;13.58;62.87;101119.84;5096436;28;20023;-83
2022/05/31 07:20:45;;;;;;;11.23;6.97;;;;;;;13.79;62.08;101118.50;5113512;28;20043;-83
2022/05/31 07:23:11;;;;;;;10.30;6.83;;;;;;;13.94;61.65;101109.09;5112750;28;20391;-83
2022/05/31 07:25:37;;;;;;;10.85;6.03;;;;;;;14.13;60.39;101112.56;5095476;28;20039;-83
2022/05/31 07:28:02;;;;;;;10.37;5.80;;;;;;;14.19;60.67;101108.94;5078722;28;20035;-83
2022/05/31 07:30:28;;;;;;;8.32;5.70;;;;;;;14.29;60.06;101119.25;5111669;28;20126;-83
2022/05/31 07:32:53;;;;;;;9.43;6.03;;;;;;;14.34;59.28;101122.97;5114021;28;20382;-83
2022/05/31 07:35:19;;;;;;;9.30;6.07;;;;;;;14.37;59.12;101110.75;5079377;28;20118;-83
2022/05/31 07:37:47;;;;;;;9.10;4.80;;;;;;;14.31;59.00;101106.22;5111934;28;20399;-83
2022/05/31 07:40:13;;;;;;;7.07;4.63;;;;;;;14.28;57.42;101101.25;5095364;28;20138;-83
2022/05/31 07:42:38;;;;;;;12.15;5.25;;;;;;;14.35;57.55;101107.41;5078397;28;20139;-82
2022/05/31 07:45:05;;;;;;;8.67;5.83;;;;;;;14.41;58.01;101101.03;5095367;28;20479;-82
2022/05/31 07:47:30;;;;;;;8.77;4.80;;;;;;;14.49;57.57;101102.56;5115739;28;20030;-83
2022/05/31 07:49:56;;;;;;;11.23;5.50;;;;;;;14.57;58.42;101111.25;5116369;28;20024;-82
2022/05/31 07:52:22;;;;;;;6.83;4.70;;;;;;;14.60;56.88;101093.56;5116077;28;20776;-83
2022/05/31 07:54:47;;;;;;;7.10;4.35;;;;;;;14.67;57.01;101101.66;5115944;28;20055;-83
2022/05/31 07:59:57;;;;;;;11.48;5.63;;;;;;;14.80;57.91;101092.41;5116317;28;20043;-82
2022/05/31 08:02:22;;;;;;;8.57;4.70;;;;;;;14.86;57.91;101103.22;5098937;28;20028;-83
2022/05/31 08:04:48;;;;;;;7.90;4.53;;;;;;;14.86;57.12;101092.28;5115620;28;20039;-82
2022/05/31 08:07:13;;;;;;;10.97;5.00;;;;;;;14.93;57.04;101091.34;5115475;28;20031;-83
2022/05/31 08:09:39;;;;;;;10.53;4.27;;;;;;;14.98;56.46;101097.75;5116076;28;20675;-82
2022/05/31 08:12:10;;;;;;;10.83;4.57;;;;;;;14.99;56.24;101084.94;5116485;28;20057;-83
2022/05/31 08:14:35;;;;;;;10.40;4.53;;;;;;;15.03;56.63;101083.38;5115346;28;20118;-83
2022/05/31 08:17:03;;;;;;;9.63;4.03;;;;;;;15.15;55.85;101088.84;5116809;28;20452;-83
2022/05/31 08:19:29;;;;;;;6.32;4.30;;;;;;;15.11;55.63;101066.59;5115673;28;20057;-83
2022/05/31 08:21:56;;;;;;;6.57;4.20;;;;;;;15.23;56.64;101089.28;5115399;28;20031;-82
2022/05/31 08:24:22;;;;;;;9.00;5.00;;;;;;;15.32;55.60;101087.00;5115703;28;20089;-82
2022/05/31 08:26:47;;;;;;;8.13;4.70;;;;;;;15.42;56.15;101086.38;5115654;28;20443;-83
2022/05/31 08:29:13;;;;;;;9.55;4.35;;;;;;;15.49;55.39;101078.06;5115345;28;20032;-82
2022/05/31 08:31:40;;;;;;;7.60;5.20;;;;;;;15.58;55.95;101084.78;5098270;28;20024;-82
2022/05/31 08:34:07;;;;;;;9.35;6.10;;;;;;;15.68;55.89;101076.78;5099355;28;20418;-83
2022/05/31 08:36:33;;;;;;;9.67;5.40;;;;;;;15.79;55.10;101077.84;5097933;28;20028;-82
2022/05/31 08:38:58;;;;;;;10.05;5.50;;;;;;;16.00;54.42;101083.69;5098227;28;20027;-82
2022/05/31 08:41:36;;;;;;;9.23;4.80;;;;;;;16.20;53.89;101084.06;5114586;28;20059;-83
2022/05/31 08:44:10;;;;;;;9.50;5.13;;;;;;;16.41;51.79;101081.66;5114945;28;20023;-83
2022/05/31 08:46:42;;;;;;;8.20;4.63;;;;;;;16.51;52.20;101084.56;5115231;28;20391;-83
2022/05/31 08:49:13;;;;;;;12.75;4.78;;;;;;;16.44;51.57;101070.22;5116011;28;20476;-83
2022/05/31 08:51:55;;;;;;;8.88;5.03;;;;;;;16.64;53.01;101073.28;5116826;28;20066;-82
2022/05/31 08:57:55;;;;;;;7.18;4.60;;;;;;;16.92;51.59;101073.41;5116454;28;20371;-82
2022/05/31 09:00:27;;;;;;;7.07;4.53;;;;;;;16.83;50.53;101084.78;5116319;28;20031;-82
2022/05/31 09:03:02;;;;;;;6.95;4.40;;;;;;;16.81;51.31;101075.16;5115632;28;20477;-83
2022/05/31 09:05:34;;;;;;;7.80;4.30;;;;;;;16.76;50.43;101083.31;5115669;28;20032;-83
2022/05/31 09:08:05;;;;;;;8.30;4.23;;;;;;;16.71;50.12;101081.34;5116367;28;20031;-83
2022/05/31 09:10:43;;;;;;;6.13;4.78;;;;;;;16.51;51.12;101081.00;5116013;28;20483;-83
2022/05/31 09:13:32;;;;;;;7.68;4.93;;;;;;;16.37;52.70;101081.34;5114547;28;20114;-82
2022/05/31 09:16:09;;;;;;;9.30;5.38;;;;;;;16.35;52.96;101078.00;5114418;28;20027;-82
2022/05/31 09:18:44;;;;;;;7.93;5.10;;;;;;;16.37;51.56;101072.28;5114579;28;20122;-82
2022/05/31 09:21:34;;;;;;;9.77;5.00;;;;;;;16.47;52.67;101078.75;5114476;28;20460;-82
2022/05/31 09:24:00;;;;;;;8.95;5.35;;;;;;;16.53;52.96;101071.44;5114594;28;20084;-82
2022/05/31 09:26:41;;;;;;;7.28;5.22;;;;;;;16.76;52.78;101069.63;5113941;28;20039;-82
2022/05/31 09:29:10;;;;;;;7.60;5.55;;;;;;;16.92;50.81;101081.63;5114235;28;20035;-82
2022/05/31 09:31:54;;;;;;;7.82;5.18;;;;;;;17.09;51.86;101076.94;5115409;28;20071;-82
2022/05/31 09:34:40;;;;;;;8.27;4.90;;;;;;;17.26;51.24;101071.44;5114475;28;20166;-82
2022/05/31 09:37:37;;;;;;;6.70;4.97;;;;;;;17.71;50.50;101078.53;5114834;28;20535;-82
2022/05/31 09:40:40;;;;;;;5.50;4.53;;;;;;;18.22;49.55;101071.94;5115197;28;20455;-82
2022/05/31 09:43:25;;;;;;;8.13;4.50;;;;;;;18.68;47.45;101063.22;5113394;28;20047;-82
2022/05/31 09:45:58;;;;;;;8.52;4.65;;;;;;;18.98;44.57;101054.34;5114163;28;20134;-82
2022/05/31 09:48:24;;;;;;;6.90;4.93;;;;;;;18.93;45.06;101055.16;5113730;28;20122;-82
2022/05/31 09:50:55;;;;;;;6.40;3.97;;;;;;;19.16;45.27;101052.22;5113985;28;20093;-82
2022/05/31 09:59:11;;;;;;;7.50;4.57;;;;;;;20.00;43.73;101053.03;5115566;28;20517;-82
2022/05/31 10:01:46;;;;;;;9.70;5.07;;;;;;;20.13;43.00;101057.19;5113201;28;20050;-82
2022/05/31 10:04:26;;;;;;;7.10;4.32;;;;;;;20.26;42.68;101056.63;5096152;28;20042;-82
2022/05/31 10:07:03;;;;;;;5.68;4.38;;;;;;;20.37;41.32;101060.22;5113496;28;20035;-82
2022/05/31 10:10:00;;;;;;;9.48;4.68;;;;;;;20.36;43.45;101050.31;5112966;28;20031;-82
2022/05/31 10:12:34;;;;;;;5.57;4.10;;;;;;;20.41;41.79;101043.97;5112002;28;20061;-82
2022/05/31 10:15:03;;;;;;;7.43;5.20;;;;;;;20.80;40.73;101043.38;5098051;28;20043;-82
2022/05/31 10:17:44;;;;;;;6.05;4.72;;;;;;;21.14;42.37;101042.72;5113991;28;20027;-82
2022/05/31 10:20:12;;;;;;;5.95;4.13;;;;;;;21.38;40.50;101051.19;5096261;28;20092;-82
2022/05/31 10:22:58;;;;;;;5.72;4.45;;;;;;;21.37;40.66;101039.28;5112697;28;20027;-82
2022/05/31 10:25:49;;;;;;;6.80;4.60;;;;;;;21.22;41.65;101050.41;5102512;28;20039;-82
2022/05/31 10:28:37;;;;;;;6.13;4.70;;;;;;;21.02;41.73;101046.63;5112843;28;20027;-82
2022/05/31 10:31:27;;;;;;;6.65;4.88;;;;;;;20.94;41.42;101057.41;5113356;28;20028;-82
2022/05/31 10:33:59;;;;;;;6.93;4.93;;;;;;;20.84;40.63;101050.78;5096379;28;20035;-82
2022/05/31 10:36:30;;;;;;;8.88;5.20;;;;;;;20.93;40.88;101044.72;5114247;28;20023;-84
2022/05/31 10:39:07;;;;;;;11.20;4.83;;;;;;;20.91;40.76;101036.72;5112836;28;20399;-83
2022/05/31 10:41:34;;;;;;;7.15;4.80;;;;;;;20.87;40.81;101043.09;5112885;28;20057;-82
2022/05/31 10:44:29;;;;;;;8.43;5.00;;;;;;;20.89;41.39;101049.97;5112500;28;20509;-83
2022/05/31 10:46:56;;;;;;;7.50;4.85;;;;;;;;;;5113064;28;20038;-83
2022/05/31 10:49:22;;;;;;;8.07;4.88;;;;;;;20.61;39.95;101032.91;5112903;28;20463;-82
2022/05/31 10:52:04;;;;;;;6.30;5.03;;;;;;;20.53;41.05;101043.69;5112812;28;20081;-82
2022/05/31 10:54:52;;;;;;;8.02;5.13;;;;;;;20.40;41.96;101045.06;5112847;28;20080;-82
2022/05/31 10:57:42;;;;;;;9.02;4.75;;;;;;;20.26;42.36;101053.06;5112982;28;20051;-83
2022/05/31 11:00:20;;;;;;;7.38;4.65;;;;;;;19.96;41.88;101039.00;5112844;28;20043;-82
2022/05/31 11:02:57;;;;;;;8.38;5.00;;;;;;;19.88;42.47;101039.53;5112585;28;20119;-82
2022/05/31 11:06:01;;;;;;;7.20;4.40;;;;;;;20.02;42.52;101047.25;5113196;28;20032;-82
2022/05/31 11:12:10;;;;;;;9.05;4.68;;;;;;;20.39;41.41;101049.75;5114457;28;20034;-82
2022/05/31 11:15:00;;;;;;;17.30;5.00;;;;;;;20.56;40.39;101045.88;5112448;28;20020;-82
2022/05/31 11:17:40;;;;;;;15.52;6.18;;;;;;;20.85;40.73;101051.63;5112836;28;20376;-82
2022/05/31 11:20:49;;;;;;;6.53;4.67;;;;;;;21.59;40.21;101049.16;5115043;28;20157;-83
2022/05/31 11:23:23;;;;;;;9.38;4.75;;;;;;;22.21;37.48;101044.03;5106614;28;20094;-83
2022/05/31 11:26:08;;;;;;;6.22;4.70;;;;;;;22.05;37.23;101056.31;5116553;28;20490;-82
2022/05/31 11:28:50;;;;;;;9.35;4.80;;;;;;;21.79;37.72;101062.03;5116759;28;20036;-83
2022/05/31 11:31:28;;;;;;;5.68;4.65;;;;;;;21.88;37.99;101060.31;5118223;28;20097;-82
2022/05/31 11:34:05;;;;;;;5.93;4.50;;;;;;;22.19;37.24;101060.06;5116752;28;20114;-82
2022/05/31 11:36:45;;;;;;;10.25;4.68;;;;;;;22.46;36.98;101044.13;5116433;28;20062;-82
2022/05/31 11:39:28;;;;;;;7.30;4.13;;;;;;;23.14;35.71;101048.69;5116515;28;20046;-82
2022/05/31 11:42:08;;;;;;;6.90;4.55;;;;;;;24.02;34.60;101048.31;5115943;28;20051;-82
2022/05/31 11:44:59;;;;;;;5.95;4.25;;;;;;;24.84;34.25;101046.88;5116225;28;20035;-82
2022/05/31 11:47:52;;;;;;;9.00;4.30;;;;;;;24.91;33.81;101048.44;5116300;28;20126;-82
2022/05/31 11:50:17;;;;;;;6.20;3.50;;;;;;;24.57;30.54;101049.59;5116731;28;20032;-82
2022/05/31 11:53:10;;;;;;;6.20;3.90;;;;;;;24.12;33.73;101053.69;5115911;28;20038;-82
2022/05/31 11:55:45;;;;;;;7.90;3.70;;;;;;;23.59;33.19;101049.19;5117434;28;20351;-82
2022/05/31 11:58:15;;;;;;;5.50;2.65;;;;;;;23.30;31.30;101049.31;5115687;28;20168;-82
2022/05/31 12:00:48;;;;;;;4.82;2.47;;;;;;;22.97;31.88;101056.59;5117151;28;20023;-82
2022/05/31 12:03:26;;;;;;;4.32;2.33;;;;;;;22.94;31.99;101058.84;5116465;28;20456;-82
2022/05/31 12:05:58;;;;;;;2.13;1.75;;;;;;;23.12;30.24;101059.22;5115753;28;20043;-82
2022/05/31 12:08:34;;;;;;;5.93;2.20;;;;;;;23.20;30.56;101054.97;5116174;28;20033;-82